Time;durP1;ratioP1;P1;durP2;ratioP2;P2;SDS_P1;SDS_P2;PMS_P1;PMS_P2;Temp;Humidity;BMP_temperature;BMP_pressure;BME280_temperature;BME280_humidity;BME280_pressure;Samples;Min_cycle;Max_cycle;Signal;HPM_P1;HPM_P2
2023/11/22 00:01:38;;;;;;;8.93;1.98;;;7.60;99.90;;;;;;6240358;28;20072;-93
2023/11/22 00:04:41;;;;;;;11.77;2.60;;;7.40;99.90;;;;;;6262507;28;20049;-95
2023/11/22 00:07:43;;;;;;;13.90;2.63;;;7.30;99.90;;;;;;6240510;28;20077;-95
2023/11/22 00:10:45;;;;;;;10.88;2.92;;;7.30;99.90;;;;;;6242626;28;20065;-95
2023/11/22 00:13:55;;;;;;;12.35;2.83;;;7.20;99.90;;;;;;6258926;28;20053;-95
2023/11/22 00:17:01;;;;;;;10.20;2.53;;;7.10;99.90;;;;;;6240527;28;20045;-95
2023/11/22 00:20:05;;;;;;;10.32;2.67;;;6.90;99.90;;;;;;6239973;28;20049;-95
2023/11/22 00:23:08;;;;;;;12.10;2.50;;;6.80;99.90;;;;;;6265114;28;20045;-95
2023/11/22 00:26:11;;;;;;;12.98;2.70;;;6.80;99.90;;;;;;6239020;28;20569;-93
2023/11/22 00:29:13;;;;;;;10.80;2.60;;;6.60;99.90;;;;;;6253575;28;20119;-95
2023/11/22 00:32:15;;;;;;;14.90;3.03;;;6.50;99.90;;;;;;6265141;28;20052;-95
2023/11/22 00:35:17;;;;;;;10.18;2.55;;;6.50;99.90;;;;;;6238342;28;20053;-93
2023/11/22 00:38:19;;;;;;;12.25;2.80;;;6.40;99.90;;;;;;6260259;28;20119;-95
2023/11/22 00:41:20;;;;;;;11.15;2.83;;;6.30;99.90;;;;;;6237033;28;20188;-94
2023/11/22 00:44:22;;;;;;;9.30;2.70;;;6.30;99.90;;;;;;6248311;28;20054;-94
2023/11/22 00:47:25;;;;;;;12.10;2.50;;;6.20;99.90;;;;;;6278488;28;20049;-95
2023/11/22 00:50:27;;;;;;;11.25;3.13;;;6.20;99.90;;;;;;6238413;28;20119;-95
2023/11/22 00:53:31;;;;;;;12.05;3.05;;;6.10;99.90;;;;;;6261112;28;20049;-94
2023/11/22 00:56:37;;;;;;;11.00;2.65;;;6.10;99.90;;;;;;6247711;28;20053;-95
2023/11/22 00:59:43;;;;;;;12.35;2.90;;;6.10;99.90;;;;;;6251257;28;20075;-95
2023/11/22 01:03:14;;;;;;;12.20;2.88;;;6.00;99.90;;;;;;6249320;28;20046;-94
2023/11/22 01:06:22;;;;;;;11.65;2.90;;;6.00;99.90;;;;;;6228285;28;20077;-95
2023/11/22 01:09:25;;;;;;;13.15;2.92;;;6.10;99.90;;;;;;6230955;28;20072;-94
2023/11/22 01:12:28;;;;;;;11.35;3.47;;;6.10;99.90;;;;;;6258344;28;20136;-93
2023/11/22 01:15:34;;;;;;;11.65;2.65;;;6.10;99.90;;;;;;6224082;28;20050;-94
2023/11/22 01:18:36;;;;;;;12.85;3.08;;;6.10;99.90;;;;;;6260856;28;20052;-94
2023/11/22 01:21:39;;;;;;;13.30;3.35;;;6.00;99.90;;;;;;6238087;28;20053;-94
2023/11/22 01:24:41;;;;;;;11.80;3.20;;;6.00;99.90;;;;;;6240345;28;20056;-94
2023/11/22 01:27:43;;;;;;;12.50;2.88;;;6.10;99.90;;;;;;6250381;28;20546;-95
2023/11/22 01:30:49;;;;;;;11.05;2.97;;;6.10;99.90;;;;;;6260744;28;20049;-94
2023/11/22 01:33:54;;;;;;;11.18;3.00;;;6.20;99.90;;;;;;6243458;28;20060;-95
2023/11/22 01:36:59;;;;;;;9.30;2.97;;;6.20;99.90;;;;;;6221646;28;20067;-95
2023/11/22 01:40:08;;;;;;;9.13;2.85;;;6.30;99.90;;;;;;6234828;28;20073;-93
2023/11/22 01:43:09;;;;;;;8.52;2.97;;;6.30;99.90;;;;;;6257772;28;20072;-94
2023/11/22 01:46:11;;;;;;;12.07;2.60;;;6.40;99.90;;;;;;6233909;28;20187;-93
2023/11/22 01:49:13;;;;;;;10.90;2.85;;;6.40;99.90;;;;;;6211059;28;20046;-92
2023/11/22 01:52:17;;;;;;;13.13;3.20;;;6.50;99.90;;;;;;6260283;28;20136;-94
2023/11/22 01:55:19;;;;;;;12.63;3.15;;;6.50;99.90;;;;;;6237347;28;20068;-93
2023/11/22 01:58:22;;;;;;;11.82;2.65;;;6.50;99.90;;;;;;6256618;28;20060;-94
2023/11/22 02:01:28;;;;;;;12.43;2.78;;;6.60;99.90;;;;;;6222037;28;20425;-93
2023/11/22 02:04:30;;;;;;;7.68;3.00;;;6.60;99.90;;;;;;6258716;28;20092;-93
2023/11/22 02:07:32;;;;;;;10.77;3.13;;;6.60;99.90;;;;;;6235114;28;20057;-94
2023/11/22 02:10:36;;;;;;;6.85;2.60;;;6.70;99.90;;;;;;6269989;28;20044;-93
2023/11/22 02:13:38;;;;;;;10.68;3.25;;;6.70;99.90;;;;;;6254006;28;20407;-93
2023/11/22 02:16:40;;;;;;;10.75;2.63;;;6.70;99.90;;;;;;6260776;28;20512;-94
2023/11/22 02:19:42;;;;;;;14.18;3.03;;;6.70;99.90;;;;;;6252837;28;20060;-94
2023/11/22 02:22:44;;;;;;;6.93;2.65;;;6.70;99.90;;;;;;6278041;28;20049;-94
2023/11/22 02:25:46;;;;;;;9.13;2.72;;;6.70;99.90;;;;;;6235759;28;20060;-93
2023/11/22 02:28:48;;;;;;;11.32;2.85;;;6.80;99.90;;;;;;6266434;28;20488;-94
2023/11/22 02:31:52;;;;;;;7.57;2.40;;;6.90;99.90;;;;;;6236092;28;20115;-93
2023/11/22 02:34:54;;;;;;;9.52;2.85;;;6.80;99.90;;;;;;6258887;28;20045;-94
2023/11/22 02:37:56;;;;;;;9.57;2.70;;;6.80;99.90;;;;;;6236152;28;20053;-94
2023/11/22 02:40:58;;;;;;;10.35;2.60;;;6.80;99.90;;;;;;6259788;28;20149;-93
2023/11/22 02:44:00;;;;;;;10.75;2.85;;;6.80;99.90;;;;;;6243747;28;20053;-93
2023/11/22 02:47:02;;;;;;;10.63;2.78;;;6.80;99.90;;;;;;6245312;28;20049;-93
2023/11/22 02:50:05;;;;;;;11.50;3.08;;;6.80;99.90;;;;;;6266964;28;20053;-94
2023/11/22 02:53:07;;;;;;;10.93;2.75;;;6.70;99.90;;;;;;6241577;28;20108;-94
2023/11/22 02:56:10;;;;;;;8.52;2.65;;;6.80;99.90;;;;;;6264077;28;20049;-94
2023/11/22 02:59:13;;;;;;;10.82;2.65;;;6.80;99.90;;;;;;6238787;28;20175;-93
2023/11/22 03:02:17;;;;;;;7.97;2.83;;;6.70;99.90;;;;;;6265415;28;20170;-93
2023/11/22 03:05:18;;;;;;;8.85;2.67;;;6.70;99.90;;;;;;6237665;28;20045;-94
2023/11/22 03:08:20;;;;;;;12.55;2.80;;;6.70;99.90;;;;;;6257631;28;20508;-93
2023/11/22 03:11:23;;;;;;;10.68;3.35;;;6.70;99.90;;;;;;6264571;28;20106;-92
2023/11/22 03:14:24;;;;;;;9.45;2.42;;;6.70;99.90;;;;;;6266330;28;20053;-93
2023/11/22 03:17:27;;;;;;;7.93;2.78;;;6.70;99.90;;;;;;6239190;28;20056;-93
2023/11/22 03:20:30;;;;;;;8.93;2.95;;;6.70;99.90;;;;;;6238209;28;20100;-93
2023/11/22 03:23:32;;;;;;;12.35;3.00;;;6.70;99.90;;;;;;6273697;28;20061;-92
2023/11/22 03:26:34;;;;;;;7.20;2.90;;;6.60;99.90;;;;;;6242147;28;20053;-92
2023/11/22 03:29:36;;;;;;;8.93;2.65;;;6.60;99.90;;;;;;6260581;28;20080;-92
2023/11/22 03:32:39;;;;;;;9.25;3.28;;;6.60;99.90;;;;;;6303436;28;20049;-93
2023/11/22 03:35:42;;;;;;;6.68;2.65;;;6.60;99.90;;;;;;6262749;28;20059;-92
2023/11/22 03:38:43;;;;;;;7.90;3.33;;;6.50;99.90;;;;;;6287274;28;20043;-92
2023/11/22 03:41:45;;;;;;;8.00;2.90;;;6.50;99.90;;;;;;6263489;28;20060;-92
2023/11/22 03:44:47;;;;;;;8.73;3.45;;;6.40;99.90;;;;;;6287219;28;20047;-92
2023/11/22 03:47:49;;;;;;;10.18;3.33;;;6.50;99.90;;;;;;6287229;28;20043;-92
2023/11/22 03:50:51;;;;;;;11.27;3.38;;;6.40;99.90;;;;;;6263615;28;20119;-94
2023/11/22 03:53:53;;;;;;;11.82;3.38;;;6.40;99.90;;;;;;6304327;28;20053;-94
2023/11/22 03:56:55;;;;;;;13.23;3.60;;;6.30;99.90;;;;;;6278220;28;20076;-93
2023/11/22 03:59:57;;;;;;;8.50;3.28;;;6.30;99.90;;;;;;6277897;28;20044;-94
2023/11/22 04:03:01;;;;;;;11.68;3.25;;;6.20;99.90;;;;;;6286673;28;20045;-93
2023/11/22 04:06:03;;;;;;;10.93;3.38;;;6.10;99.90;;;;;;6261131;28;20097;-93
2023/11/22 04:09:05;;;;;;;11.25;3.40;;;6.10;99.90;;;;;;6294602;28;20550;-92
2023/11/22 04:12:07;;;;;;;11.23;3.75;;;6.00;99.90;;;;;;6258634;28;20096;-93
2023/11/22 04:15:10;;;;;;;12.30;3.47;;;5.90;99.90;;;;;;6282829;28;20057;-94
2023/11/22 04:18:13;;;;;;;11.82;3.50;;;5.90;99.90;;;;;;6258007;28;20061;-94
2023/11/22 04:21:15;;;;;;;9.77;3.33;;;5.70;99.90;;;;;;6264286;28;20163;-93
2023/11/22 04:24:17;;;;;;;10.77;3.53;;;5.70;99.90;;;;;;6240260;28;20045;-92
2023/11/22 04:27:19;;;;;;;9.63;3.08;;;5.70;99.90;;;;;;6263555;28;20049;-92
2023/11/22 04:30:21;;;;;;;10.15;3.40;;;5.60;99.90;;;;;;6259445;28;20043;-93
2023/11/22 04:33:23;;;;;;;12.75;3.50;;;5.60;99.90;;;;;;6270318;28;20060;-94
2023/11/22 04:36:25;;;;;;;11.35;3.30;;;5.50;99.90;;;;;;6256330;28;20045;-94
2023/11/22 04:39:27;;;;;;;13.27;3.67;;;5.50;99.90;;;;;;6279443;28;20049;-93
2023/11/22 04:42:28;;;;;;;10.68;3.38;;;5.50;99.90;;;;;;6257860;28;20052;-95
2023/11/22 04:45:30;;;;;;;9.45;3.30;;;5.40;99.90;;;;;;6285740;22;20068;-84
2023/11/22 04:48:32;;;;;;;10.45;3.53;;;5.40;99.90;;;;;;6229941;28;20049;-84
2023/11/22 04:51:34;;;;;;;11.77;3.65;;;5.40;99.90;;;;;;6271073;28;20056;-84
2023/11/22 04:54:35;;;;;;;11.52;3.47;;;5.40;99.90;;;;;;6247400;28;20413;-84
2023/11/22 04:57:37;;;;;;;7.95;3.40;;;5.30;99.90;;;;;;6252995;28;20480;-83
2023/11/22 05:00:39;;;;;;;14.73;4.13;;;5.30;99.90;;;;;;6256699;28;20084;-83
2023/11/22 05:03:40;;;;;;;10.35;4.10;;;5.30;99.90;;;;;;6229043;28;20170;-83
2023/11/22 05:06:43;;;;;;;12.85;4.88;;;5.30;99.90;;;;;;6252309;28;20056;-83
2023/11/22 05:09:45;;;;;;;12.35;4.30;;;5.40;99.90;;;;;;6270975;28;20146;-83
2023/11/22 05:12:47;;;;;;;13.73;4.95;;;5.50;99.90;;;;;;6247094;28;20056;-83
2023/11/22 05:15:50;;;;;;;14.23;5.28;;;5.50;99.90;;;;;;6249883;28;20049;-83
2023/11/22 05:18:52;;;;;;;13.35;4.75;;;5.60;99.90;;;;;;6247064;28;20061;-83
2023/11/22 05:21:53;;;;;;;12.68;5.00;;;5.70;99.90;;;;;;6252607;28;20060;-83
2023/11/22 05:24:56;;;;;;;15.00;4.60;;;5.70;99.90;;;;;;6228201;28;20559;-83
2023/11/22 05:27:58;;;;;;;12.23;4.07;;;5.70;99.90;;;;;;6252086;28;20061;-83
2023/11/22 05:31:00;;;;;;;10.23;4.40;;;5.80;99.90;;;;;;6225749;28;20072;-84
2023/11/22 05:34:02;;;;;;;12.48;4.25;;;5.80;99.90;;;;;;6221090;28;20080;-84
2023/11/22 05:37:05;;;;;;;9.50;3.95;;;5.80;99.90;;;;;;6269323;28;20056;-84
2023/11/22 05:40:09;;;;;;;12.43;4.75;;;5.80;99.90;;;;;;6228214;28;20247;-84
2023/11/22 05:43:11;;;;;;;13.75;4.47;;;5.70;99.90;;;;;;6250122;28;20060;-84
2023/11/22 05:46:13;;;;;;;12.77;4.00;;;5.70;99.90;;;;;;6261461;28;20057;-83
2023/11/22 05:49:15;;;;;;;13.50;4.40;;;5.70;99.90;;;;;;6232548;28;20102;-84
2023/11/22 05:52:17;;;;;;;12.30;4.80;;;5.60;99.90;;;;;;6252177;28;20578;-84
2023/11/22 05:55:18;;;;;;;11.63;4.25;;;5.60;99.90;;;;;;6228100;28;20147;-84
2023/11/22 05:58:21;;;;;;;11.80;4.50;;;5.50;99.90;;;;;;6248504;28;20048;-84
2023/11/22 06:01:22;;;;;;;12.45;4.50;;;5.40;99.90;;;;;;6226344;28;20057;-84
2023/11/22 06:04:24;;;;;;;12.00;4.50;;;5.50;99.90;;;;;;6250948;28;20045;-84
2023/11/22 06:07:27;;;;;;;14.40;4.78;;;5.40;99.90;;;;;;6227343;28;20170;-85
2023/11/22 06:10:28;;;;;;;17.85;4.95;;;5.40;99.90;;;;;;6269121;28;20057;-84
2023/11/22 06:13:31;;;;;;;17.67;5.35;;;5.40;99.90;;;;;;6228359;28;20083;-86
2023/11/22 06:16:33;;;;;;;14.07;5.20;;;5.40;99.90;;;;;;6251673;28;20060;-85
2023/11/22 06:19:34;;;;;;;107.70;12.13;;;5.30;99.90;;;;;;6245819;28;20061;-88
2023/11/22 06:22:40;;;;;;;15.40;6.20;;;5.30;99.90;;;;;;6269940;28;20511;-85
2023/11/22 06:25:43;;;;;;;17.67;5.75;;;5.40;99.90;;;;;;6203466;28;20046;-85
2023/11/22 06:28:48;;;;;;;12.98;4.68;;;5.30;99.90;;;;;;6242379;28;20136;-85
2023/11/22 06:31:50;;;;;;;14.10;4.65;;;5.30;99.90;;;;;;6245056;28;20065;-85
2023/11/22 06:34:51;;;;;;;12.15;4.75;;;5.30;99.90;;;;;;6250824;28;20408;-85
2023/11/22 06:37:53;;;;;;;16.50;5.50;;;5.10;99.90;;;;;;6227293;28;20455;-85
2023/11/22 06:40:54;;;;;;;14.90;5.82;;;5.10;99.90;;;;;;6268722;28;20056;-85
2023/11/22 06:43:56;;;;;;;18.45;5.28;;;5.10;99.90;;;;;;6233122;28;20504;-85
2023/11/22 06:46:58;;;;;;;14.10;5.53;;;5.10;99.90;;;;;;6251126;28;20060;-85
2023/11/22 06:49:59;;;;;;;11.65;5.03;;;5.10;99.90;;;;;;6243258;28;20459;-84
2023/11/22 06:53:03;;;;;;;13.50;5.28;;;5.00;99.90;;;;;;6251482;28;20049;-84
2023/11/22 06:56:05;;;;;;;10.73;4.30;;;5.00;99.90;;;;;;6245223;28;20053;-84
2023/11/22 06:59:06;;;;;;;16.05;5.45;;;4.90;99.90;;;;;;6240128;28;20060;-84
2023/11/22 07:02:08;;;;;;;18.25;6.07;;;5.00;99.90;;;;;;6268610;28;20053;-83
2023/11/22 07:05:10;;;;;;;16.20;6.13;;;4.90;99.90;;;;;;6244725;28;20052;-83
2023/11/22 07:08:12;;;;;;;16.35;5.90;;;5.00;99.90;;;;;;6269448;28;20056;-83
2023/11/22 07:11:13;;;;;;;15.27;5.80;;;5.10;99.90;;;;;;6228255;28;20045;-85
2023/11/22 07:14:16;;;;;;;16.88;6.68;;;5.10;99.90;;;;;;6238857;28;20057;-84
2023/11/22 07:17:18;;;;;;;19.35;5.80;;;5.20;99.90;;;;;;6252086;28;20053;-86
2023/11/22 07:20:20;;;;;;;18.73;6.55;;;5.30;99.90;;;;;;6233599;28;20424;-85
2023/11/22 07:23:27;;;;;;;18.92;6.22;;;5.40;99.90;;;;;;6255275;28;20060;-83
2023/11/22 07:26:28;;;;;;;18.25;6.15;;;5.50;99.90;;;;;;6221059;28;20236;-83
2023/11/22 07:29:31;;;;;;;14.45;5.50;;;5.50;99.90;;;;;;6247179;28;20057;-84
2023/11/22 07:32:33;;;;;;;12.95;5.70;;;5.60;99.90;;;;;;6277177;28;20064;-87
2023/11/22 07:35:36;;;;;;;14.68;5.93;;;5.70;99.90;;;;;;6252882;28;20196;-82
2023/11/22 07:38:39;;;;;;;14.68;5.65;;;5.80;99.90;;;;;;6257884;28;20056;-83
2023/11/22 07:41:41;;;;;;;14.85;5.63;;;6.00;99.90;;;;;;6251809;28;20508;-84
2023/11/22 07:44:43;;;;;;;12.10;5.28;;;6.00;99.90;;;;;;6251453;28;20041;-85
2023/11/22 07:47:46;;;;;;;16.42;6.30;;;6.10;99.90;;;;;;6278618;28;20484;-85
2023/11/22 07:50:49;;;;;;;12.75;5.82;;;6.10;99.90;;;;;;6273411;28;20057;-85
2023/11/22 07:53:50;;;;;;;14.15;5.68;;;6.20;99.90;;;;;;6233198;28;20409;-86
2023/11/22 07:56:52;;;;;;;17.15;6.53;;;6.20;99.90;;;;;;6274379;28;20049;-86
2023/11/22 07:59:55;;;;;;;13.25;5.90;;;6.30;99.90;;;;;;6247742;28;20049;-86
2023/11/22 08:02:57;;;;;;;13.88;5.82;;;6.30;99.90;;;;;;6249703;28;20144;-87
2023/11/22 08:05:59;;;;;;;17.70;6.25;;;6.40;99.90;;;;;;6256219;28;20397;-86
2023/11/22 08:09:01;;;;;;;17.63;6.50;;;6.40;99.90;;;;;;6230717;28;20045;-87
2023/11/22 08:12:03;;;;;;;16.05;6.57;;;6.40;99.90;;;;;;6255581;28;20071;-87
2023/11/22 08:15:09;;;;;;;16.52;5.90;;;6.40;99.90;;;;;;6227023;28;20057;-86
2023/11/22 08:18:10;;;;;;;18.67;6.88;;;6.50;99.90;;;;;;6255640;28;20057;-87
2023/11/22 08:21:12;;;;;;;14.60;5.90;;;6.50;99.90;;;;;;6233110;28;20049;-87
2023/11/22 08:24:14;;;;;;;16.50;6.70;;;6.60;99.90;;;;;;6255679;28;20052;-87
2023/11/22 08:27:16;;;;;;;17.40;6.45;;;6.70;99.90;;;;;;6232064;28;20049;-88
2023/11/22 08:30:18;;;;;;;16.65;7.10;;;6.80;99.90;;;;;;6256266;28;20049;-86
2023/11/22 08:33:20;;;;;;;19.67;6.30;;;6.90;99.90;;;;;;6236380;28;20107;-87
2023/11/22 08:36:21;;;;;;;16.30;5.97;;;6.90;99.90;;;;;;6258553;28;20048;-87
2023/11/22 08:39:23;;;;;;;13.38;5.68;;;7.00;99.90;;;;;;6236550;28;20053;-89
2023/11/22 08:42:25;;;;;;;13.52;5.85;;;7.00;99.90;;;;;;6258993;28;20053;-87
2023/11/22 08:45:29;;;;;;;14.60;5.90;;;7.00;99.90;;;;;;6242517;28;20072;-87
2023/11/22 08:48:30;;;;;;;20.17;6.25;;;7.00;99.90;;;;;;6229772;28;20519;-85
2023/11/22 08:51:33;;;;;;;18.27;6.28;;;7.10;99.90;;;;;;6272668;28;20080;-88
2023/11/22 08:54:36;;;;;;;14.73;6.35;;;7.00;99.90;;;;;;6230190;28;20061;-86
2023/11/22 08:57:38;;;;;;;14.77;5.65;;;7.10;99.90;;;;;;6272079;28;20496;-86
2023/11/22 09:00:41;;;;;;;16.63;5.78;;;7.20;99.90;;;;;;6228873;28;20412;-85
2023/11/22 09:03:43;;;;;;;14.05;5.40;;;7.40;99.90;;;;;;6231692;28;20130;-86
2023/11/22 09:06:47;;;;;;;12.77;5.85;;;7.50;99.90;;;;;;6254988;28;20044;-82
2023/11/22 09:09:48;;;;;;;16.65;5.70;;;7.60;99.90;;;;;;6230233;28;20049;-83
2023/11/22 09:12:51;;;;;;;17.48;5.85;;;7.80;99.90;;;;;;6255243;28;20067;-83
2023/11/22 09:15:53;;;;;;;12.60;4.90;;;7.90;99.90;;;;;;6224966;28;20053;-84
2023/11/22 09:18:56;;;;;;;13.73;5.25;;;8.00;99.90;;;;;;6252968;28;20059;-84
2023/11/22 09:21:58;;;;;;;13.70;3.75;;;8.20;99.90;;;;;;6228949;28;20045;-85
2023/11/22 09:25:00;;;;;;;8.73;3.33;;;8.50;99.90;;;;;;6254403;28;20095;-85
2023/11/22 09:28:01;;;;;;;11.88;3.38;;;8.70;99.90;;;;;;6230605;28;20057;-86
2023/11/22 09:31:05;;;;;;;10.20;3.00;;;8.80;99.90;;;;;;6251794;28;20048;-85
2023/11/22 09:34:08;;;;;;;7.18;2.83;;;8.80;99.90;;;;;;6206047;28;20127;-88
2023/11/22 09:37:09;;;;;;;11.15;3.42;;;9.00;99.90;;;;;;6252386;28;20045;-84
2023/11/22 09:40:12;;;;;;;12.00;3.08;;;9.00;99.90;;;;;;6246494;28;20126;-85
2023/11/22 09:43:17;;;;;;;10.40;2.60;;;9.00;99.90;;;;;;6251129;28;20056;-84
2023/11/22 09:46:21;;;;;;;9.27;3.30;;;9.00;99.90;;;;;;6218102;28;20053;-84
2023/11/22 09:49:23;;;;;;;6.63;2.17;;;9.00;99.90;;;;;;6193845;28;20124;-85
2023/11/22 09:52:24;;;;;;;6.20;1.98;;;9.00;99.90;;;;;;6195782;28;20050;-85
2023/11/22 09:55:27;;;;;;;8.43;2.85;;;9.00;99.90;;;;;;6220528;28;20139;-84
2023/11/22 09:58:29;;;;;;;10.18;2.80;;;9.10;99.90;;;;;;6197724;28;20061;-85
2023/11/22 10:01:31;;;;;;;9.98;2.90;;;9.10;99.90;;;;;;6220583;28;20056;-85
2023/11/22 10:04:34;;;;;;;12.52;3.67;;;9.10;99.90;;;;;;6197549;28;20054;-86
2023/11/22 10:07:36;;;;;;;9.82;2.60;;;9.10;99.90;;;;;;6221487;28;20057;-81
2023/11/22 10:10:38;;;;;;;12.27;2.70;;;9.20;99.90;;;;;;6195790;28;20046;-82
2023/11/22 10:13:39;;;;;;;9.13;2.30;;;9.20;99.90;;;;;;6212870;28;20061;-86
2023/11/22 10:16:41;;;;;;;12.43;3.13;;;9.30;99.90;;;;;;6197619;28;20059;-84
2023/11/22 10:19:43;;;;;;;8.15;2.55;;;9.30;99.90;;;;;;6219124;28;20062;-84
2023/11/22 10:22:47;;;;;;;14.10;2.88;;;9.50;99.90;;;;;;6196223;28;20135;-84
2023/11/22 10:25:49;;;;;;;8.50;2.50;;;9.50;99.90;;;;;;6219745;28;20730;-84
2023/11/22 10:28:52;;;;;;;9.70;2.00;;;9.50;99.90;;;;;;6201574;28;20502;-86
2023/11/22 10:31:54;;;;;;;7.97;2.28;;;9.60;99.90;;;;;;6220024;28;20060;-83
2023/11/22 10:34:56;;;;;;;8.55;1.92;;;9.70;99.90;;;;;;6195479;28;20050;-84
2023/11/22 10:37:58;;;;;;;7.15;2.05;;;9.60;99.90;;;;;;6218541;28;20561;-85
2023/11/22 10:41:01;;;;;;;7.05;1.83;;;9.70;99.90;;;;;;6194808;28;20058;-85
2023/11/22 10:44:03;;;;;;;6.43;1.27;;;9.70;99.50;;;;;;6209671;28;20054;-85
2023/11/22 10:47:05;;;;;;;7.68;1.17;;;9.70;98.70;;;;;;6219632;28;20064;-87
2023/11/22 10:50:08;;;;;;;6.68;1.17;;;9.70;98.40;;;;;;6235882;28;20060;-85
2023/11/22 10:53:09;;;;;;;5.78;1.10;;;9.80;96.60;;;;;;6252429;28;20125;-86
2023/11/22 10:56:11;;;;;;;4.20;1.17;;;9.80;95.60;;;;;;6232302;28;20049;-85
2023/11/22 10:59:14;;;;;;;5.18;1.23;;;9.80;96.10;;;;;;6238099;28;20611;-85
2023/11/22 11:02:17;;;;;;;4.75;1.27;;;9.80;93.80;;;;;;6250464;28;20565;-84
2023/11/22 11:05:19;;;;;;;4.18;1.30;;;9.70;93.60;;;;;;6226431;28;20056;-83
2023/11/22 11:08:21;;;;;;;4.30;1.33;;;9.60;92.60;;;;;;6267970;28;20065;-82
2023/11/22 11:11:23;;;;;;;9.02;1.55;;;9.60;93.40;;;;;;6244347;28;20049;-83
2023/11/22 11:14:25;;;;;;;9.82;1.80;;;9.70;94.40;;;;;;6237400;28;20508;-85
2023/11/22 11:17:26;;;;;;;9.80;2.00;;;9.70;91.50;;;;;;6250550;28;20041;-84
2023/11/22 11:20:28;;;;;;;6.28;1.67;;;9.80;92.80;;;;;;6226401;28;20053;-82
2023/11/22 11:23:31;;;;;;;6.47;1.55;;;9.80;91.90;;;;;;6253426;28;20525;-83
2023/11/22 11:26:36;;;;;;;7.53;1.67;;;9.90;92.20;;;;;;6231097;28;20106;-84
2023/11/22 11:29:42;;;;;;;5.22;1.50;;;10.00;90.10;;;;;;6240717;28;20496;-84
2023/11/22 11:32:44;;;;;;;6.10;1.60;;;10.20;90.00;;;;;;6224184;28;20061;-86
2023/11/22 11:35:46;;;;;;;9.52;1.98;;;10.40;90.40;;;;;;6272922;28;20064;-85
2023/11/22 11:38:49;;;;;;;6.38;1.50;;;10.60;81.30;;;;;;6231259;28;20057;-85
2023/11/22 11:41:51;;;;;;;5.22;1.60;;;10.60;77.80;;;;;;6255588;28;20049;-86
2023/11/22 11:44:53;;;;;;;8.30;1.80;;;10.70;84.90;;;;;;6238123;28;20065;-84
2023/11/22 11:47:54;;;;;;;5.00;1.50;;;10.80;78.50;;;;;;6231459;28;20531;-86
2023/11/22 11:50:56;;;;;;;6.95;1.80;;;10.90;81.90;;;;;;6245681;28;20057;-85
2023/11/22 11:53:58;;;;;;;6.97;1.83;;;11.10;76.20;;;;;;6255917;28;20045;-84
2023/11/22 11:57:00;;;;;;;3.78;1.52;;;11.10;79.50;;;;;;6232435;28;20081;-83
2023/11/22 12:00:04;;;;;;;5.63;1.58;;;11.00;74.20;;;;;;6251709;28;20514;-86
2023/11/22 12:03:06;;;;;;;5.07;1.50;;;10.80;76.80;;;;;;6231145;28;20123;-85
2023/11/22 12:06:07;;;;;;;4.40;1.33;;;10.70;75.60;;;;;;6272304;28;20053;-85
2023/11/22 12:09:09;;;;;;;5.10;1.50;;;10.70;76.70;;;;;;6231248;28;20135;-86
2023/11/22 12:12:11;;;;;;;9.30;1.63;;;10.60;81.60;;;;;;6256123;28;20060;-85
2023/11/22 12:15:14;;;;;;;6.00;1.60;;;10.60;81.70;;;;;;6230226;28;20061;-84
2023/11/22 12:18:16;;;;;;;7.72;1.92;;;10.40;78.50;;;;;;6256131;28;20503;-84
2023/11/22 12:21:18;;;;;;;5.55;1.50;;;10.50;82.40;;;;;;6230986;28;20068;-86
2023/11/22 12:24:19;;;;;;;4.63;2.00;;;10.50;82.00;;;;;;6255445;28;20049;-86
2023/11/22 12:27:22;;;;;;;7.60;2.05;;;10.50;85.90;;;;;;6231564;28;20053;-85
2023/11/22 12:30:24;;;;;;;7.78;2.38;;;10.50;81.40;;;;;;6256434;28;20511;-88
2023/11/22 12:33:26;;;;;;;8.40;2.22;;;10.50;84.50;;;;;;6231536;28;20049;-85
2023/11/22 12:36:27;;;;;;;7.85;2.22;;;10.70;82.50;;;;;;6256382;28;20404;-87
2023/11/22 12:39:29;;;;;;;8.43;2.10;;;10.60;82.30;;;;;;6233701;28;20057;-86
2023/11/22 12:42:31;;;;;;;5.78;1.95;;;10.70;88.90;;;;;;6257509;28;20060;-88
2023/11/22 12:45:38;;;;;;;8.07;2.20;;;10.80;86.90;;;;;;6243109;28;20057;-87
2023/11/22 12:48:42;;;;;;;8.70;2.45;;;10.80;87.30;;;;;;6231383;28;20135;-86
2023/11/22 12:51:43;;;;;;;10.60;2.45;;;10.70;80.50;;;;;;6266186;28;20150;-87
2023/11/22 12:54:47;;;;;;;7.22;2.35;;;10.70;80.20;;;;;;6256148;28;20061;-85
2023/11/22 12:57:49;;;;;;;7.80;2.05;;;10.80;80.30;;;;;;6265387;28;20053;-87
2023/11/22 13:00:51;;;;;;;6.78;2.00;;;10.90;81.60;;;;;;6236446;28;20053;-87
2023/11/22 13:03:53;;;;;;;5.50;2.10;;;10.90;79.60;;;;;;6256323;28;20056;-85
2023/11/22 13:06:55;;;;;;;6.07;1.90;;;10.80;82.10;;;;;;6233760;28;20046;-87
2023/11/22 13:09:56;;;;;;;9.13;2.00;;;10.80;87.30;;;;;;6258138;28;20049;-88
2023/11/22 13:12:58;;;;;;;5.82;2.13;;;11.00;83.30;;;;;;6249724;28;20053;-85
2023/11/22 13:16:00;;;;;;;10.27;2.10;;;10.90;83.50;;;;;;6253426;28;20049;-84
2023/11/22 13:19:02;;;;;;;5.15;1.80;;;10.80;82.90;;;;;;6209360;28;20054;-86
2023/11/22 13:22:05;;;;;;;9.65;2.22;;;10.80;87.30;;;;;;6257758;28;20057;-89
2023/11/22 13:25:07;;;;;;;7.90;2.40;;;10.80;87.40;;;;;;6250653;28;20056;-87
2023/11/22 13:28:09;;;;;;;7.53;2.33;;;10.80;87.30;;;;;;6256414;28;20048;-85
2023/11/22 13:31:12;;;;;;;9.20;2.90;;;10.90;83.90;;;;;;6231538;28;20413;-87
2023/11/22 13:34:13;;;;;;;6.63;2.40;;;10.90;89.40;;;;;;6206733;28;20093;-87
2023/11/22 13:37:15;;;;;;;7.63;2.80;;;11.00;87.60;;;;;;6254280;28;20049;-87
2023/11/22 13:40:18;;;;;;;9.15;2.72;;;11.00;87.80;;;;;;6231712;28;20058;-87
2023/11/22 13:43:20;;;;;;;7.85;2.92;;;10.90;87.40;;;;;;6253055;28;20543;-87
2023/11/22 13:46:22;;;;;;;8.45;3.22;;;11.00;90.10;;;;;;6247369;28;20057;-84
2023/11/22 13:49:23;;;;;;;8.90;3.00;;;10.80;88.80;;;;;;6263860;28;20075;-87
2023/11/22 13:52:25;;;;;;;9.43;3.20;;;10.90;90.20;;;;;;6248623;28;20049;-86
2023/11/22 13:55:27;;;;;;;7.28;2.83;;;10.80;91.00;;;;;;6255444;28;20072;-85
2023/11/22 13:58:29;;;;;;;11.05;3.05;;;10.80;90.40;;;;;;6231730;28;20108;-86
2023/11/22 14:01:32;;;;;;;7.95;2.97;;;10.80;91.20;;;;;;6254547;28;20400;-86
2023/11/22 14:04:34;;;;;;;8.38;3.40;;;10.80;91.80;;;;;;6205294;28;20056;-85
2023/11/22 14:07:36;;;;;;;10.15;2.97;;;10.70;91.80;;;;;;6253612;28;20084;-85
2023/11/22 14:10:37;;;;;;;9.60;2.90;;;10.70;92.20;;;;;;6231908;28;20053;-85
2023/11/22 14:13:39;;;;;;;9.18;3.20;;;10.80;92.50;;;;;;6246377;28;20057;-85
2023/11/22 14:16:44;;;;;;;12.82;3.30;;;10.70;92.50;;;;;;6229333;28;20188;-87
2023/11/22 14:19:46;;;;;;;9.02;3.00;;;10.70;92.90;;;;;;6254315;28;20160;-86
2023/11/22 14:22:54;;;;;;;10.20;3.08;;;10.70;92.10;;;;;;6221828;28;20132;-85
2023/11/22 14:25:56;;;;;;;9.75;3.40;;;10.70;93.10;;;;;;6270997;28;20099;-87
2023/11/22 14:28:58;;;;;;;11.23;3.20;;;10.70;92.80;;;;;;6238558;28;20507;-85
2023/11/22 14:31:59;;;;;;;9.77;3.03;;;10.80;92.80;;;;;;6231600;28;20049;-85
2023/11/22 14:35:01;;;;;;;8.63;3.10;;;10.70;93.30;;;;;;6253525;28;20519;-85
2023/11/22 14:38:05;;;;;;;12.07;3.60;;;10.80;93.10;;;;;;6229594;28;20414;-87
2023/11/22 14:41:10;;;;;;;10.18;3.38;;;10.80;93.60;;;;;;6255538;28;20057;-85
2023/11/22 14:44:11;;;;;;;12.20;3.15;;;10.80;93.60;;;;;;6237193;28;20055;-86
2023/11/22 14:47:19;;;;;;;7.25;2.90;;;10.70;93.90;;;;;;6255075;28;20049;-86
2023/11/22 14:50:21;;;;;;;13.43;3.65;;;10.70;93.60;;;;;;6234517;28;20489;-84
2023/11/22 14:53:25;;;;;;;9.35;3.00;;;10.70;95.00;;;;;;6253406;28;20140;-86
2023/11/22 14:56:27;;;;;;;9.57;3.05;;;10.60;95.10;;;;;;6228469;28;20060;-85
2023/11/22 14:59:29;;;;;;;10.70;3.17;;;10.60;95.40;;;;;;6238531;28;20154;-85
2023/11/22 15:02:31;;;;;;;14.75;3.40;;;10.60;95.70;;;;;;6253143;28;20053;-85
2023/11/22 15:05:33;;;;;;;8.35;3.17;;;10.60;95.70;;;;;;6229869;28;20140;-83
2023/11/22 15:08:35;;;;;;;10.57;3.55;;;10.60;95.80;;;;;;6253259;28;20068;-87
2023/11/22 15:11:37;;;;;;;7.95;3.08;;;10.60;96.00;;;;;;6231493;28;20080;-86
2023/11/22 15:14:39;;;;;;;12.07;3.22;;;10.60;95.80;;;;;;6257065;28;20138;-83
2023/11/22 15:17:41;;;;;;;8.90;3.42;;;10.70;96.40;;;;;;6254658;28;20060;-88
2023/11/22 15:20:43;;;;;;;8.40;3.00;;;10.60;96.50;;;;;;6230046;28;20049;-86
2023/11/22 15:23:45;;;;;;;9.38;3.50;;;10.60;97.00;;;;;;6254162;28;20049;-86
2023/11/22 15:26:47;;;;;;;12.40;3.33;;;10.70;97.40;;;;;;6234836;28;20057;-86
2023/11/22 15:29:48;;;;;;;7.65;3.03;;;10.70;97.30;;;;;;6248762;28;20057;-89
2023/11/22 15:32:50;;;;;;;11.00;3.63;;;10.60;97.70;;;;;;6270070;28;20143;-87
2023/11/22 15:35:53;;;;;;;10.80;3.60;;;10.60;98.10;;;;;;6233558;28;20049;-87
2023/11/22 15:38:55;;;;;;;10.15;3.30;;;10.60;98.30;;;;;;6256976;28;20052;-89
2023/11/22 15:41:56;;;;;;;11.00;3.10;;;10.50;98.50;;;;;;6232588;28;20390;-88
2023/11/22 15:44:58;;;;;;;11.30;3.67;;;10.60;98.60;;;;;;6239015;28;20166;-91
2023/11/22 15:48:00;;;;;;;13.15;3.70;;;10.50;99.20;;;;;;6273857;28;20072;-89
2023/11/22 15:51:02;;;;;;;9.60;3.80;;;10.50;98.90;;;;;;6248032;28;20191;-90